Time;durP1;ratioP1;P1;durP2;ratioP2;P2;SDS_P1;SDS_P2;PMS_P1;PMS_P2;Temp;Humidity;BMP_temperature;BMP_pressure;BME280_temperature;BME280_humidity;BME280_pressure;Samples;Min_cycle;Max_cycle;Signal;HPM_P1;HPM_P2
2022/10/06 00:02:27;;;;;;;2.45;1.80;;;;;;;19.69;63.93;97528.97;10518403;28;20052;-52
2022/10/06 00:07:46;;;;;;;1.77;1.67;;;;;;;19.69;63.85;97521.63;10551434;28;20044;-52
2022/10/06 00:13:05;;;;;;;2.10;1.73;;;;;;;19.69;63.72;97532.44;10516270;28;20048;-52
2022/10/06 00:18:26;;;;;;;2.53;1.75;;;;;;;19.69;63.81;97531.66;10532043;28;20105;-52
2022/10/06 00:23:46;;;;;;;2.28;1.80;;;;;;;19.67;63.83;97540.06;10510642;28;20085;-52
2022/10/06 00:29:05;;;;;;;2.65;1.83;;;;;;;19.67;63.77;97542.78;10522094;28;20551;-51
2022/10/06 00:34:25;;;;;;;1.77;1.67;;;;;;;19.67;63.82;97547.38;10502005;28;20059;-52
2022/10/06 00:39:44;;;;;;;2.20;1.80;;;;;;;19.66;63.82;97543.06;10511270;28;20059;-52
2022/10/06 00:45:05;;;;;;;1.70;1.60;;;;;;;19.67;63.72;97561.69;10516829;28;20543;-53
2022/10/06 00:50:25;;;;;;;1.70;1.60;;;;;;;19.66;63.79;97553.88;10518150;28;20044;-52
2022/10/06 00:55:45;;;;;;;2.00;1.70;;;;;;;19.65;63.77;97555.00;10531816;28;20060;-52
2022/10/06 01:01:05;;;;;;;3.15;1.88;;;;;;;19.64;63.83;97554.22;10538785;28;20036;-52
2022/10/06 01:06:24;;;;;;;3.47;1.60;;;;;;;19.64;63.92;97558.78;10525887;28;20044;-52
2022/10/06 01:11:46;;;;;;;1.77;1.55;;;;;;;19.64;63.74;97564.19;10503133;28;20049;-52
2022/10/06 01:17:09;;;;;;;1.90;1.63;;;;;;;19.62;63.79;97555.59;10527899;28;20055;-52
2022/10/06 01:22:31;;;;;;;1.80;1.55;;;;;;;19.62;63.69;97556.41;10526729;28;20044;-52
2022/10/06 01:27:53;;;;;;;2.90;1.58;;;;;;;19.63;63.72;97559.91;10564680;28;20043;-52
2022/10/06 01:33:16;;;;;;;1.70;1.60;;;;;;;19.62;63.69;97561.00;10502899;28;20403;-52
2022/10/06 01:38:37;;;;;;;1.88;1.33;;;;;;;19.62;63.75;97563.72;10503278;28;20048;-52
2022/10/06 01:43:57;;;;;;;1.92;1.30;;;;;;;19.61;63.79;97562.13;10533844;28;20044;-52
2022/10/06 01:49:17;;;;;;;1.95;1.70;;;;;;;19.61;63.74;97562.91;10538239;28;20036;-50
2022/10/06 01:54:36;;;;;;;1.70;1.60;;;;;;;19.60;63.76;97561.34;10511667;28;20082;-52
2022/10/06 01:59:55;;;;;;;2.15;1.50;;;;;;;19.58;63.74;97558.13;10492803;28;20142;-52
2022/10/06 02:05:16;;;;;;;1.40;1.30;;;;;;;19.59;63.69;97565.13;10504595;28;20044;-52
2022/10/06 02:10:39;;;;;;;1.40;1.30;;;;;;;19.58;63.70;97568.13;10493876;28;20056;-52
2022/10/06 02:16:07;;;;;;;1.40;1.30;;;;;;;19.58;63.74;97565.44;10533705;28;20490;-52
2022/10/06 02:21:27;;;;;;;1.95;1.50;;;;;;;19.58;63.71;97565.44;10492490;28;20495;-51
2022/10/06 02:26:46;;;;;;;1.77;1.40;;;;;;;19.56;63.59;97574.66;10524371;28;20039;-52
2022/10/06 02:32:06;;;;;;;1.95;1.48;;;;;;;19.56;63.69;97574.66;10508564;28;20091;-52
2022/10/06 02:37:26;;;;;;;1.45;1.30;;;;;;;19.56;63.61;97576.53;10492981;28;20052;-52
2022/10/06 02:42:45;;;;;;;1.58;1.48;;;;;;;19.54;63.66;97574.16;10517359;28;20057;-52
2022/10/06 02:48:10;;;;;;;1.80;1.40;;;;;;;19.55;63.48;97583.84;10515906;28;20036;-52
2022/10/06 02:53:29;;;;;;;1.52;1.35;;;;;;;19.54;63.41;97598.50;10492272;28;20048;-51
2022/10/06 02:58:51;;;;;;;1.67;1.38;;;;;;;19.54;63.37;97593.09;10500560;28;20060;-52
2022/10/06 03:04:16;;;;;;;1.80;1.48;;;;;;;19.52;63.32;97598.00;10511409;28;20403;-52
2022/10/06 03:09:36;;;;;;;1.95;1.42;;;;;;;19.53;63.32;97612.28;10528334;28;20040;-52
2022/10/06 03:14:55;;;;;;;1.85;1.42;;;;;;;19.52;63.24;97606.09;10498905;28;20105;-52
2022/10/06 03:20:15;;;;;;;1.33;1.23;;;;;;;19.51;63.21;97611.81;10500645;28;20060;-52
2022/10/06 03:25:36;;;;;;;1.83;1.52;;;;;;;19.51;63.19;97623.41;10503006;28;20057;-52
2022/10/06 03:31:02;;;;;;;1.55;1.38;;;;;;;19.51;63.13;97628.03;10531557;28;20041;-52
2022/10/06 03:36:26;;;;;;;1.43;1.33;;;;;;;19.50;63.24;97632.63;10512289;28;20129;-52
2022/10/06 03:41:46;;;;;;;2.10;1.50;;;;;;;19.50;63.15;97632.63;10508037;28;20061;-52
2022/10/06 03:47:06;;;;;;;1.27;1.17;;;;;;;19.50;63.13;97637.22;10516239;28;20041;-52
2022/10/06 03:52:26;;;;;;;1.95;1.40;;;;;;;19.48;63.13;97645.66;10540887;28;20049;-52
2022/10/06 03:57:47;;;;;;;1.30;1.20;;;;;;;19.48;63.03;97661.88;10536641;28;20063;-53
2022/10/06 04:03:06;;;;;;;1.30;1.20;;;;;;;19.47;63.05;97662.94;10528544;28;20056;-52
2022/10/06 04:08:27;;;;;;;1.95;1.40;;;;;;;19.48;62.96;97678.06;10557138;28;20055;-52
2022/10/06 04:13:51;;;;;;;1.63;1.52;;;;;;;19.47;63.09;97670.28;10519412;28;20048;-51
2022/10/06 04:19:12;;;;;;;1.48;1.35;;;;;;;19.47;63.41;97686.47;10526667;28;20424;-51
2022/10/06 04:24:35;;;;;;;1.88;1.30;;;;;;;19.48;63.50;97680.78;10521985;28;20106;-51
2022/10/06 04:29:55;;;;;;;1.98;1.23;;;;;;;19.47;63.62;97686.47;10505527;28;20056;-51
2022/10/06 04:35:14;;;;;;;1.38;1.27;;;;;;;19.47;63.67;97700.00;10519927;28;20176;-52
2022/10/06 04:40:35;;;;;;;1.30;1.20;;;;;;;19.46;63.71;97701.88;10510882;28;20064;-52
2022/10/06 04:45:58;;;;;;;1.75;1.23;;;;;;;19.46;63.85;97706.47;10519774;28;20058;-53
2022/10/06 04:51:20;;;;;;;4.40;1.40;;;;;;;19.45;63.73;97711.09;10515655;28;20042;-51
2022/10/06 04:56:40;;;;;;;1.65;1.20;;;;;;;19.45;63.80;97703.00;10540506;28;20052;-51
2022/10/06 05:02:01;;;;;;;1.20;1.10;;;;;;;19.46;63.79;97712.69;10535733;28;20105;-53
2022/10/06 05:07:21;;;;;;;1.20;1.10;;;;;;;19.44;63.76;97709.47;10484361;28;20056;-52
2022/10/06 05:12:41;;;;;;;1.95;1.40;;;;;;;19.44;63.94;97714.88;10540851;28;20044;-52
2022/10/06 05:18:00;;;;;;;3.83;1.30;;;;;;;19.43;63.79;97718.69;10516076;28;20044;-53
2022/10/06 05:23:20;;;;;;;2.70;1.58;;;;;;;19.43;63.62;97726.03;10501086;28;20078;-52
2022/10/06 05:28:40;;;;;;;4.82;2.17;;;;;;;19.42;63.49;97732.50;10513997;28;20048;-52
2022/10/06 05:34:00;;;;;;;5.53;2.38;;;;;;;19.42;63.50;97738.72;10530073;28;20385;-54
2022/10/06 05:39:20;;;;;;;6.80;2.40;;;;;;;19.41;63.46;97758.75;10493597;28;20067;-52
2022/10/06 05:44:44;;;;;;;6.93;2.78;;;;;;;19.42;63.49;97767.63;10507953;28;20456;-52
2022/10/06 05:50:05;;;;;;;11.45;2.47;;;;;;;19.41;63.47;97772.25;10506705;28;20388;-52
2022/10/06 05:55:25;;;;;;;6.55;2.50;;;;;;;19.40;63.48;97778.75;10528689;28;20113;-52
2022/10/06 06:00:46;;;;;;;8.55;2.58;;;;;;;19.40;63.52;97789.53;10524757;28;20040;-53
2022/10/06 06:06:29;;;;;;;5.15;2.35;;;;;;;19.39;63.45;97796.06;10516078;28;20048;-52
2022/10/06 06:11:52;;;;;;;5.63;2.60;;;;;;;19.39;63.46;97798.78;10494197;28;20052;-52
2022/10/06 06:17:16;;;;;;;6.70;2.50;;;;;;;19.40;63.64;97802.28;10511346;28;20063;-52
2022/10/06 06:22:36;;;;;;;6.30;2.33;;;;;;;19.39;63.55;97814.97;10499833;28;20097;-53
2022/10/06 06:27:58;;;;;;;6.80;2.53;;;;;;;19.38;63.56;97821.47;10509130;28;20082;-52
2022/10/06 06:33:18;;;;;;;4.22;2.15;;;;;;;19.38;63.54;97834.97;10524294;28;20048;-52
2022/10/06 06:38:38;;;;;;;4.80;2.08;;;;;;;19.37;63.56;97838.81;10496556;28;20063;-52
2022/10/06 06:43:59;;;;;;;5.57;2.35;;;;;;;19.38;63.59;97848.50;10521999;28;20051;-52
2022/10/06 06:49:34;;;;;;;6.20;2.63;;;;;;;19.38;63.67;97858.50;10533491;28;20075;-52
2022/10/06 06:54:57;;;;;;;4.97;2.28;;;;;;;19.36;63.62;97864.19;10539268;28;20036;-52
2022/10/06 07:00:18;;;;;;;5.40;2.67;;;;;;;19.38;63.66;97866.63;10522240;28;20397;-53
2022/10/06 07:05:38;;;;;;;5.60;2.60;;;;;;;19.37;63.65;97873.94;10521807;28;20428;-51
2022/10/06 07:10:59;;;;;;;2.67;1.83;;;;;;;19.38;63.73;97869.31;10543951;28;20040;-52
2022/10/06 07:27:41;;;;;;;4.88;2.15;;;;;;;19.38;63.79;97888.22;10513217;28;20438;-52
2022/10/06 07:33:03;;;;;;;5.43;2.33;;;;;;;19.37;63.86;97903.66;10537109;28;20044;-52
2022/10/06 07:38:24;;;;;;;4.13;2.00;;;;;;;19.38;63.93;97909.84;10521359;28;20124;-52
2022/10/06 07:43:46;;;;;;;7.15;2.65;;;;;;;19.37;63.99;97917.16;10543722;28;20052;-52
2022/10/06 07:49:05;;;;;;;4.43;2.22;;;;;;;19.37;63.97;97919.88;10549864;28;20415;-52
2022/10/06 07:54:25;;;;;;;5.68;2.47;;;;;;;19.37;64.10;97930.66;10524875;28;20465;-52
2022/10/06 07:59:57;;;;;;;5.43;2.42;;;;;;;19.38;64.02;97934.97;10525512;28;20055;-52
2022/10/06 08:05:16;;;;;;;3.72;2.00;;;;;;;19.38;64.08;97942.28;10538920;28;20478;-52
2022/10/06 08:10:36;;;;;;;3.90;2.03;;;;;;;19.38;64.11;97945.78;10540868;28;20056;-52
2022/10/06 08:15:55;;;;;;;5.55;2.10;;;;;;;19.37;64.09;97949.59;10531562;28;20060;-52
2022/10/06 08:21:17;;;;;;;4.25;2.00;;;;;;;19.37;64.01;97955.00;10527763;28;20064;-52
2022/10/06 08:26:37;;;;;;;3.47;2.00;;;;;;;19.36;64.14;97959.56;10543067;28;20102;-52
2022/10/06 08:31:58;;;;;;;3.67;2.30;;;;;;;19.38;64.10;97963.88;10542338;28;20047;-52
2022/10/06 08:37:22;;;;;;;3.58;1.90;;;;;;;19.36;64.16;97964.19;10542105;28;20052;-53
2022/10/06 08:42:45;;;;;;;3.25;2.22;;;;;;;19.36;64.26;97977.69;10539937;28;20056;-52
2022/10/06 08:48:12;;;;;;;3.88;1.90;;;;;;;19.37;64.10;97973.91;10527591;28;20052;-52
2022/10/06 08:53:54;;;;;;;4.75;2.17;;;;;;;19.37;64.28;97984.72;10531583;28;20044;-52
2022/10/06 08:59:15;;;;;;;4.68;2.10;;;;;;;19.37;64.18;97995.53;10541647;28;20067;-53
2022/10/06 09:04:34;;;;;;;3.05;1.90;;;;;;;19.36;64.25;97996.59;10541854;28;20044;-53
2022/10/06 09:10:03;;;;;;;2.65;1.63;;;;;;;19.38;64.28;98001.72;10541403;28;20047;-52
2022/10/06 09:15:27;;;;;;;;;;;;;;;19.35;64.37;98003.13;10554926;28;20526;-52
2022/10/06 09:21:02;;;;;;;3.13;1.95;;;;;;;19.36;64.26;98010.91;10540904;28;19920;-52
2022/10/06 09:26:27;;;;;;;2.83;1.90;;;;;;;19.36;64.16;98007.41;10554405;28;20051;-52
2022/10/06 09:31:49;;;;;;;3.10;1.75;;;;;;;19.35;64.25;98006.63;10539287;28;20051;-52
2022/10/06 09:37:12;;;;;;;2.83;1.63;;;;;;;19.35;64.09;98011.22;10532328;28;20484;-53
2022/10/06 09:42:34;;;;;;;2.63;1.70;;;;;;;19.35;64.18;98008.53;10539691;28;20060;-53
2022/10/06 09:47:53;;;;;;;3.05;1.70;;;;;;;19.34;63.93;98018.50;10537535;28;20052;-52
2022/10/06 09:53:15;;;;;;;2.95;1.58;;;;;;;19.35;64.11;98027.44;10526129;28;20052;-52
2022/10/06 09:58:36;;;;;;;2.67;1.67;;;;;;;19.36;64.00;98031.72;10539696;28;20400;-52
2022/10/06 10:03:59;;;;;;;2.13;1.58;;;;;;;19.36;64.05;98037.13;10552797;28;20047;-52
2022/10/06 10:09:20;;;;;;;2.88;1.60;;;;;;;19.36;64.10;98042.53;10552313;28;20040;-53
2022/10/06 10:14:39;;;;;;;3.22;1.60;;;;;;;19.36;64.11;98040.63;10552576;28;20048;-53
2022/10/06 10:20:00;;;;;;;2.58;1.67;;;;;;;19.37;64.13;98049.56;10538777;28;20070;-54
2022/10/06 10:25:53;;;;;;;3.20;1.80;;;;;;;19.36;64.02;98053.34;10538892;28;20403;-55
2022/10/06 10:31:19;;;;;;;2.50;1.67;;;;;;;19.35;64.17;98057.16;10531285;28;20047;-52
2022/10/06 10:37:03;;;;;;;2.50;1.77;;;;;;;19.35;64.13;98065.28;10549807;28;20403;-52
2022/10/06 10:42:30;;;;;;;2.85;1.67;;;;;;;19.35;64.14;98063.38;10520996;28;20108;-53
2022/10/06 10:47:49;;;;;;;2.47;1.60;;;;;;;19.34;64.05;98071.75;10535121;28;20059;-52
2022/10/06 10:53:24;;;;;;;2.33;1.52;;;;;;;19.35;64.19;98084.19;10542343;28;20097;-53
2022/10/06 10:58:47;;;;;;;2.75;1.60;;;;;;;19.34;64.12;98098.78;10537921;28;20459;-52
2022/10/06 11:04:12;;;;;;;2.35;1.65;;;;;;;19.34;64.06;98123.88;10537786;28;20393;-52
2022/10/06 11:09:51;;;;;;;1.77;1.48;;;;;;;19.33;63.93;98127.69;10526223;28;20066;-52
2022/10/06 11:15:11;;;;;;;4.45;2.05;;;;;;;19.33;63.94;98129.59;10537527;28;20055;-53
2022/10/06 11:20:48;;;;;;;3.42;1.60;;;;;;;19.34;64.01;98125.78;10537381;28;20055;-52
2022/10/06 11:26:38;;;;;;;3.20;1.58;;;;;;;19.34;63.82;98131.19;10529320;28;20048;-53
2022/10/06 11:32:20;;;;;;;4.25;1.85;;;;;;;19.32;63.72;98136.88;10521814;28;20054;-52
2022/10/06 11:37:46;;;;;;;2.83;1.70;;;;;;;19.32;63.69;98128.00;10537131;28;20055;-52
2022/10/06 11:43:39;;;;;;;3.90;1.77;;;;;;;19.32;63.71;98136.09;10540860;28;20114;-52
2022/10/06 11:49:38;;;;;;;4.07;1.85;;;;;;;19.32;63.71;98139.59;10518034;28;20048;-52
2022/10/06 11:55:08;;;;;;;3.55;1.77;;;;;;;19.32;63.79;98145.00;10541378;28;20450;-52
2022/10/06 12:00:34;;;;;;;5.38;2.40;;;;;;;19.32;63.69;98144.19;10543581;28;20048;-52
2022/10/06 12:05:53;;;;;;;8.13;2.78;;;;;;;19.32;63.67;98150.41;10544137;28;20074;-52
2022/10/06 12:11:42;;;;;;;8.75;3.10;;;;;;;19.31;63.58;98154.22;10533338;28;20040;-52
2022/10/06 12:17:13;;;;;;;10.32;3.22;;;;;;;19.30;63.52;98149.09;10529891;28;20056;-52
2022/10/06 12:22:58;;;;;;;15.10;4.25;;;;;;;19.30;63.52;98149.09;10548782;28;20044;-53
2022/10/06 12:28:34;;;;;;;11.63;4.03;;;;;;;19.30;63.48;98149.09;10541565;28;20113;-52
2022/10/06 12:33:54;;;;;;;12.35;4.30;;;;;;;19.31;63.54;98148.00;10547553;28;20059;-52
2022/10/06 12:39:22;;;;;;;15.70;4.53;;;;;;;19.30;63.58;98124.78;10546740;28;20047;-52
2022/10/06 12:44:48;;;;;;;11.18;4.00;;;;;;;19.30;63.62;98146.38;10528691;28;20059;-53
2022/10/06 12:50:17;;;;;;;12.48;3.58;;;;;;;19.32;63.63;98138.78;10530033;28;20047;-52
2022/10/06 12:56:04;;;;;;;9.00;3.65;;;;;;;19.31;63.74;98131.78;10560546;28;20065;-53
2022/10/06 13:01:25;;;;;;;9.52;3.42;;;;;;;19.31;63.58;98131.78;10528860;28;20055;-53
2022/10/06 13:06:48;;;;;;;8.18;3.20;;;;;;;19.28;61.48;98140.47;10554953;28;20032;-53
2022/10/06 13:12:31;;;;;;;3.80;2.65;;;;;;;19.23;60.13;98138.66;10537103;28;20052;-53
2022/10/06 13:17:58;;;;;;;3.60;2.42;;;;;;;-146.19;100.00;65364.44;10531034;28;20120;-52
2022/10/06 13:23:27;;;;;;;4.05;2.55;;;;;;;19.11;58.48;98144.47;10540327;28;20068;-53
2022/10/06 13:28:49;;;;;;;2.80;2.15;;;;;;;19.08;57.59;98146.94;10524529;28;20059;-53
2022/10/06 13:34:11;;;;;;;2.17;1.98;;;;;;;19.05;57.34;98140.22;10544321;28;20051;-52
2022/10/06 13:39:31;;;;;;;3.53;2.28;;;;;;;19.03;57.14;98142.38;10539623;28;20060;-53
2022/10/06 13:44:57;;;;;;;6.40;4.80;;;;;;;19.01;56.71;98149.97;10523695;28;20495;-54
2022/10/06 13:50:17;;;;;;;6.32;4.30;;;;;;;19.01;56.63;98146.47;10542437;28;20040;-54
2022/10/06 13:55:37;;;;;;;6.55;2.80;;;;;;;19.03;56.57;98153.19;10538827;28;20048;-54
2022/10/06 14:00:59;;;;;;;5.47;2.70;;;;;;;19.04;56.37;98149.41;10538584;28;20126;-53
2022/10/06 14:06:21;;;;;;;4.25;2.25;;;;;;;19.03;56.41;98158.56;10537289;28;20113;-53
2022/10/06 14:11:40;;;;;;;3.65;2.08;;;;;;;19.05;56.49;98161.81;10551970;28;20096;-54
2022/10/06 14:16:59;;;;;;;3.47;2.30;;;;;;;19.07;56.92;98158.81;10538191;28;20407;-53
2022/10/06 14:22:37;;;;;;;4.22;2.67;;;;;;;19.10;57.43;98159.03;10535966;28;20044;-54
2022/10/06 14:27:56;;;;;;;2.85;2.10;;;;;;;19.11;57.90;98166.06;10537882;28;20048;-53
2022/10/06 14:33:16;;;;;;;3.25;2.42;;;;;;;19.13;58.22;98158.47;10526008;28;20048;-54
2022/10/06 14:38:35;;;;;;;3.63;2.20;;;;;;;19.15;58.58;98172.50;10537320;28;20137;-54
2022/10/06 14:44:07;;;;;;;3.72;1.85;;;;;;;19.16;58.63;98163.28;10536587;28;20080;-54
2022/10/06 14:49:27;;;;;;;3.78;2.10;;;;;;;19.19;58.98;98169.22;10536639;28;20120;-53
2022/10/06 14:54:47;;;;;;;3.97;1.75;;;;;;;19.21;59.16;98164.31;10526697;28;20048;-53
2022/10/06 15:00:07;;;;;;;47.63;12.20;;;;;;;19.24;59.48;98174.56;10550595;28;20131;-53
2022/10/06 15:05:29;;;;;;;13.20;5.47;;;;;;;19.25;60.35;98174.28;10536346;28;20538;-53
2022/10/06 15:10:51;;;;;;;12.07;4.10;;;;;;;19.27;60.62;98165.91;10549766;28;20400;-54
2022/10/06 15:16:13;;;;;;;11.98;4.30;;;;;;;19.29;60.80;98169.13;10542803;28;20059;-53
2022/10/06 15:21:32;;;;;;;9.15;3.65;;;;;;;19.29;61.00;98172.59;10544852;28;20088;-53
2022/10/06 15:32:30;;;;;;;10.05;4.05;;;;;;;19.32;61.90;98172.00;10534458;28;20045;-53
2022/10/06 15:37:49;;;;;;;8.07;3.42;;;;;;;19.33;62.18;98179.03;10543678;28;20491;-53
2022/10/06 15:43:08;;;;;;;6.80;3.25;;;;;;;19.35;62.25;98189.56;10543435;28;20105;-53
2022/10/06 15:48:28;;;;;;;9.23;3.58;;;;;;;19.36;62.29;98177.66;10546216;28;20040;-53
2022/10/06 15:53:48;;;;;;;6.60;3.10;;;;;;;19.35;62.44;98179.56;10543236;28;20139;-53
2022/10/06 15:59:08;;;;;;;6.57;3.28;;;;;;;19.38;62.48;98180.88;10543241;28;20090;-54
2022/10/06 16:09:57;;;;;;;8.30;3.00;;;;;;;19.39;62.57;98182.50;10544054;28;20118;-54
2022/10/06 16:15:17;;;;;;;6.60;3.45;;;;;;;19.39;62.52;98198.69;10543414;28;20052;-53
2022/10/06 16:20:37;;;;;;;7.15;3.45;;;;;;;19.40;62.41;98199.50;10542178;28;20113;-53
2022/10/06 16:26:00;;;;;;;6.20;3.40;;;;;;;19.40;62.53;98197.59;10542154;28;20089;-53
2022/10/06 16:31:21;;;;;;;5.68;2.88;;;;;;;19.40;62.37;98197.59;10530282;28;20094;-55
2022/10/06 16:36:41;;;;;;;5.40;2.83;;;;;;;19.41;62.54;98199.22;10540339;28;20431;-53
2022/10/06 16:42:01;;;;;;;4.88;2.90;;;;;;;19.42;62.44;98208.13;10529867;28;20407;-53
2022/10/06 16:47:20;;;;;;;6.03;3.03;;;;;;;19.42;62.33;98205.41;10555287;28;20036;-53
2022/10/06 16:52:40;;;;;;;6.32;2.90;;;;;;;19.41;62.41;98207.31;10538626;28;20120;-53
2022/10/06 16:57:59;;;;;;;3.90;2.35;;;;;;;19.43;62.33;98212.44;10541711;28;20072;-53
2022/10/06 17:03:18;;;;;;;4.78;2.85;;;;;;;19.42;62.37;98222.44;10540974;28;20131;-53
2022/10/06 17:08:39;;;;;;;4.63;2.50;;;;;;;19.42;62.32;98229.75;10540205;28;20073;-54
2022/10/06 17:13:59;;;;;;;5.55;2.85;;;;;;;19.42;62.43;98241.34;10539837;28;20052;-53
2022/10/06 17:19:20;;;;;;;5.60;2.88;;;;;;;19.43;62.42;98236.78;10532296;28;20047;-54
2022/10/06 17:24:40;;;;;;;5.32;2.97;;;;;;;19.43;62.44;98242.19;10540102;28;20411;-53
2022/10/06 17:30:00;;;;;;;4.88;2.63;;;;;;;19.44;62.41;98232.97;10531902;28;20067;-53
2022/10/06 17:35:20;;;;;;;4.57;2.63;;;;;;;19.44;62.40;98239.16;10530823;28;20109;-55
2022/10/06 17:40:43;;;;;;;4.38;2.67;;;;;;;19.43;62.44;98244.88;10539132;28;20067;-53
2022/10/06 17:46:05;;;;;;;4.85;2.60;;;;;;;19.44;62.32;98238.38;10539075;28;20055;-53
2022/10/06 17:51:27;;;;;;;4.95;2.90;;;;;;;19.43;62.44;98236.78;10538952;28;20127;-54
2022/10/06 17:56:49;;;;;;;4.57;2.75;;;;;;;19.43;62.32;98234.88;10539109;28;20055;-53
2022/10/06 18:02:12;;;;;;;4.75;2.70;;;;;;;19.42;62.41;98230.53;10552189;28;20051;-53
2022/10/06 18:07:31;;;;;;;4.15;2.72;;;;;;;19.42;62.57;98241.34;10538891;28;20052;-54
2022/10/06 18:12:51;;;;;;;4.07;2.40;;;;;;;19.43;62.41;98234.88;10526605;28;20048;-53
2022/10/06 18:18:11;;;;;;;4.82;2.70;;;;;;;19.44;62.30;98230.25;10538396;28;20056;-53
2022/10/06 18:23:32;;;;;;;4.70;2.60;;;;;;;19.43;62.29;98231.38;10537200;28;20082;-53
2022/10/06 18:28:51;;;;;;;3.72;2.70;;;;;;;19.43;62.42;98224.06;10536536;28;20386;-53
2022/10/06 18:34:11;;;;;;;7.53;2.80;;;;;;;19.43;62.49;98224.06;10546592;28;20040;-54
2022/10/06 18:39:32;;;;;;;4.65;2.60;;;;;;;19.42;62.33;98241.34;10535330;28;20407;-52
2022/10/06 18:50:31;;;;;;;4.10;2.78;;;;;;;19.42;62.19;98230.53;10501404;28;20044;-53
2022/10/06 18:55:50;;;;;;;4.55;2.70;;;;;;;19.42;62.19;98243.25;10522445;28;20042;-53
2022/10/06 19:01:10;;;;;;;4.35;2.60;;;;;;;19.41;62.11;98244.38;10522769;28;20055;-53
2022/10/06 19:06:31;;;;;;;4.28;2.80;;;;;;;19.40;62.23;98248.16;10507197;28;20495;-52
2022/10/06 19:11:57;;;;;;;4.70;2.63;;;;;;;19.39;62.17;98244.66;10498522;28;20170;-53
2022/10/06 19:17:16;;;;;;;4.05;2.80;;;;;;;19.40;62.24;98246.25;10497493;28;20060;-53
2022/10/06 19:22:37;;;;;;;4.95;2.55;;;;;;;19.39;62.04;98246.56;10530952;28;20105;-53
2022/10/06 19:27:56;;;;;;;3.70;2.28;;;;;;;19.39;62.23;98243.84;10530480;28;20143;-53
2022/10/06 19:33:16;;;;;;;3.92;2.80;;;;;;;19.38;62.14;98251.13;10511863;28;20482;-53
2022/10/06 19:38:37;;;;;;;3.00;2.38;;;;;;;19.37;62.21;98260.34;10521996;28;20129;-53
2022/10/06 19:43:56;;;;;;;4.38;2.60;;;;;;;19.38;62.17;98258.44;10516336;28;20097;-53
2022/10/06 19:49:17;;;;;;;3.83;2.42;;;;;;;19.36;62.09;98262.22;10526388;28;20057;-53
2022/10/06 19:54:38;;;;;;;3.60;2.25;;;;;;;19.37;62.17;98260.34;10500566;28;20131;-54
2022/10/06 19:59:58;;;;;;;2.90;2.50;;;;;;;19.37;62.20;98271.16;10519916;28;20181;-54
2022/10/06 20:05:18;;;;;;;3.30;2.50;;;;;;;19.36;62.37;98272.22;10524063;28;20051;-53
2022/10/06 20:10:37;;;;;;;2.95;2.17;;;;;;;19.35;62.21;98266.03;10507771;28;20056;-53
2022/10/06 20:16:00;;;;;;;4.43;2.10;;;;;;;19.34;62.23;98266.31;10520789;28;20070;-53
2022/10/06 20:21:23;;;;;;;3.20;2.40;;;;;;;19.33;62.21;98265.50;10518375;28;20074;-54
2022/10/06 20:26:45;;;;;;;2.72;2.25;;;;;;;19.33;62.07;98260.09;10503342;28;20064;-54
2022/10/06 20:32:06;;;;;;;3.17;2.35;;;;;;;19.34;62.14;98271.72;10528933;28;20494;-53
2022/10/06 20:37:25;;;;;;;2.97;2.40;;;;;;;19.33;62.07;98267.41;10519031;28;20056;-53
2022/10/06 20:42:48;;;;;;;4.88;2.50;;;;;;;19.33;62.11;98264.72;10502813;28;20469;-53
2022/10/06 20:48:07;;;;;;;2.78;2.20;;;;;;;19.32;62.08;98274.69;10532121;28;20468;-53
2022/10/06 20:53:30;;;;;;;4.13;2.40;;;;;;;19.32;62.10;98266.59;10520774;28;20040;-53
2022/10/06 20:58:50;;;;;;;2.88;2.42;;;;;;;19.31;62.27;98264.19;10517339;28;20048;-53
2022/10/06 21:04:09;;;;;;;3.85;2.28;;;;;;;19.31;62.07;98261.50;10513421;28;20041;-53
2022/10/06 21:09:29;;;;;;;3.28;2.40;;;;;;;19.30;62.05;98265.28;10527665;28;20047;-53
2022/10/06 21:14:49;;;;;;;4.63;2.63;;;;;;;19.29;62.09;98259.06;10505722;28;20048;-53
2022/10/06 21:20:09;;;;;;;2.80;2.30;;;;;;;19.30;62.02;98254.47;10540445;28;20055;-53
2022/10/06 21:25:28;;;;;;;3.08;2.30;;;;;;;19.30;62.08;98257.16;10518820;28;20070;-53
2022/10/06 21:30:52;;;;;;;3.45;2.60;;;;;;;19.30;61.99;98259.88;10515653;28;20052;-53
2022/10/06 21:36:24;;;;;;;2.50;2.05;;;;;;;19.28;62.13;98256.66;10484357;28;20056;-53
2022/10/06 21:41:43;;;;;;;2.90;2.07;;;;;;;19.27;62.16;98257.75;10515905;28;20452;-53
2022/10/06 21:47:03;;;;;;;2.20;1.95;;;;;;;19.27;62.19;98255.06;10522579;28;20052;-54
2022/10/06 21:52:22;;;;;;;2.88;2.28;;;;;;;19.27;62.15;98249.66;10512036;28;20056;-53
2022/10/06 21:57:42;;;;;;;2.58;2.10;;;;;;;19.26;62.17;98254.22;10539252;28;20048;-53
2022/10/06 22:03:01;;;;;;;2.28;2.08;;;;;;;19.26;62.12;98256.94;10508282;28;20048;-53
2022/10/06 22:08:20;;;;;;;3.40;2.00;;;;;;;19.25;62.21;98246.41;10525148;28;20127;-54
2022/10/06 22:13:42;;;;;;;3.20;2.08;;;;;;;19.25;62.19;98252.63;10521657;28;20051;-53
2022/10/06 22:19:04;;;;;;;2.50;2.25;;;;;;;19.25;62.24;98241.00;10508078;28;20108;-53
2022/10/06 22:24:23;;;;;;;2.78;2.20;;;;;;;19.24;62.32;98236.69;10495171;28;20043;-53
2022/10/06 22:29:43;;;;;;;2.25;2.03;;;;;;;19.23;62.09;98238.59;10514897;28;20064;-53
2022/10/06 22:35:02;;;;;;;4.10;2.25;;;;;;;19.23;62.19;98232.38;10536074;28;20097;-53
2022/10/06 22:40:22;;;;;;;4.47;2.35;;;;;;;19.22;62.28;98222.69;10503757;28;20507;-53
2022/10/06 22:45:41;;;;;;;2.35;2.15;;;;;;;19.21;62.10;98224.59;10529134;28;20049;-53
2022/10/06 22:51:02;;;;;;;2.22;1.90;;;;;;;19.20;62.20;98222.97;10499014;28;20075;-53
2022/10/06 22:56:22;;;;;;;2.10;1.90;;;;;;;19.20;62.18;98217.56;10503770;28;20052;-53
2022/10/06 23:01:41;;;;;;;2.00;1.63;;;;;;;19.20;62.10;98214.06;10506795;28;20052;-53
2022/10/06 23:07:00;;;;;;;2.25;1.90;;;;;;;19.20;62.22;98200.56;10512228;28;20045;-53
2022/10/06 23:12:20;;;;;;;2.95;2.20;;;;;;;19.19;62.04;98204.31;10531649;28;20135;-53
2022/10/06 23:17:40;;;;;;;2.10;1.90;;;;;;;19.19;62.19;98204.31;10510457;28;20056;-53
2022/10/06 23:22:59;;;;;;;2.38;2.08;;;;;;;19.17;62.16;98200.03;10501582;28;20055;-54
2022/10/06 23:28:19;;;;;;;2.28;1.98;;;;;;;19.17;62.25;98197.34;10503322;28;20049;-53
2022/10/06 23:33:38;;;;;;;2.13;1.90;;;;;;;19.16;62.13;98195.72;10495132;28;20052;-52
2022/10/06 23:38:58;;;;;;;2.25;1.80;;;;;;;19.16;62.15;98194.91;10536405;28;20061;-53
2022/10/06 23:44:18;;;;;;;2.05;1.77;;;;;;;19.15;62.10;98185.19;10522341;28;20098;-53
2022/10/06 23:49:37;;;;;;;2.60;2.03;;;;;;;19.15;62.16;98187.88;10533663;28;20396;-53
2022/10/06 23:54:56;;;;;;;2.38;1.73;;;;;;;19.14;62.12;98189.78;10544675;28;20052;-53
